Airfield :







YOU CAN JOIN US ON...

 
LOGIN :

Register | Disclaimer

   EN    FR    IT 

 









Legend :    VFR   Marginal VFR   IFR   Intensive IFR   Very Intensive IFR
Visi :
Ceiling :
>= 8 km
>= 3000ft
5 to 8 km
1000 to 3000 ft
1500m to 5 km
500 to 1000 ft
800 to 1500m
200 to 500 ft
< 800m
< 200 ft
Symbols :   Thunderstorms  Fog  Heavy snow  Heavy precipitations  Wind > 20 kt






- Airport Elevation : 522 ft
- IATA code : YBG


CYBG - CFB Bagotville

CURRENT METAR :
  • 021400Z 28028G35KT 6SM BLSN BKN025 M23/M27 A2975 RMK SC7 SLP091

EXPIRED METARs :
  • 021300Z 29026G33KT 4SM -SN BLSN OVC025 M23/M27 A2972 RMK SC8 PCPN VRY LGT SLP082
  • 021200Z 29020G31KT 6SM -SN BLSN SCT015 OVC025 M23/M27 A2970 RMK SC3SC5 SLP075

TAF TAF CYBG
Valid from the 02 at 12:00 until the 03 at 12:00 UTC


021130Z 0212/0312 29022G35KT P6SM SCT015 OVC030
TEMPO 0212/0218 4SM -SHSN BLSN BKN015 OVC030
PROB30 0212/0215 29030G40KT 1SM -SHSN BLSN VV010
FM021800 29018G32KT P6SM BKN030
BECMG 0300/0302 29015G25KT
FM030700 29012KT P6SM SCT030 BKN240 RMK NXT FCST BY 021500Z
CZUL FIR / North America



MET'MAP, your aeronautical weather chart ! - Copyright ORBIFLY December 2007 - Disclaimer

ORBIFLY MET'MAP TEAM :

Programming & Development : Alexandra Zaïnal
Concept & original design : Baudouin d'Aumeries
Assistance for programming : Marc-Olivier Méhu
Technical & hardware support : Manuel Goepfert

Contact : metmap@orbifly.com




SOURCES & CREDITS :

   NOAA